sensor_id;sensor_type;location;lat;lon;timestamp;pressure;altitude;pressure_sealevel;temperature;humidity
7182;BME280;3632;42.724;23.298;2023-08-07T00:01:37;94807.72;;;19.54;82.55
7182;BME280;3632;42.724;23.298;2023-08-07T00:04:04;94828.19;;;19.34;83.47
7182;BME280;3632;42.724;23.298;2023-08-07T00:06:31;94830.78;;;19.34;84.52
7182;BME280;3632;42.724;23.298;2023-08-07T00:08:59;94826.53;;;19.48;83.99
7182;BME280;3632;42.724;23.298;2023-08-07T00:11:26;94832.59;;;19.55;84.09
7182;BME280;3632;42.724;23.298;2023-08-07T00:13:53;94826.31;;;19.64;83.59
7182;BME280;3632;42.724;23.298;2023-08-07T00:16:20;94837.50;;;19.71;82.71
7182;BME280;3632;42.724;23.298;2023-08-07T00:18:47;94802.16;;;19.57;82.43
7182;BME280;3632;42.724;23.298;2023-08-07T00:21:13;94841.13;;;19.77;82.63
7182;BME280;3632;42.724;23.298;2023-08-07T00:23:40;94838.47;;;19.70;80.67
7182;BME280;3632;42.724;23.298;2023-08-07T00:26:08;94753.84;;;19.15;81.52
7182;BME280;3632;42.724;23.298;2023-08-07T00:28:35;94835.03;;;19.63;82.52
7182;BME280;3632;42.724;23.298;2023-08-07T00:31:02;94839.53;;;19.54;82.94
7182;BME280;3632;42.724;23.298;2023-08-07T00:33:29;94830.28;;;19.67;82.05
7182;BME280;3632;42.724;23.298;2023-08-07T00:35:55;94835.28;;;19.68;81.94
7182;BME280;3632;42.724;23.298;2023-08-07T00:38:22;94839.34;;;19.77;81.35
7182;BME280;3632;42.724;23.298;2023-08-07T00:40:49;94842.69;;;19.78;80.81
7182;BME280;3632;42.724;23.298;2023-08-07T00:43:17;94836.69;;;19.71;80.73
7182;BME280;3632;42.724;23.298;2023-08-07T00:45:45;94834.28;;;19.69;81.21
7182;BME280;3632;42.724;23.298;2023-08-07T00:48:13;94833.53;;;19.75;81.47
7182;BME280;3632;42.724;23.298;2023-08-07T00:50:41;94769.72;;;19.33;81.77
7182;BME280;3632;42.724;23.298;2023-08-07T00:53:09;94830.72;;;19.70;82.20
7182;BME280;3632;42.724;23.298;2023-08-07T00:55:35;94838.56;;;19.55;83.40
7182;BME280;3632;42.724;23.298;2023-08-07T00:58:02;94839.13;;;19.51;83.03
7182;BME280;3632;42.724;23.298;2023-08-07T01:00:31;94883.25;;;19.35;83.42
7182;BME280;3632;42.724;23.298;2023-08-07T01:02:59;94854.53;;;19.44;83.02
7182;BME280;3632;42.724;23.298;2023-08-07T01:05:26;94858.19;;;19.35;83.12
7182;BME280;3632;42.724;23.298;2023-08-07T01:07:53;94821.16;;;19.07;83.41
7182;BME280;3632;42.724;23.298;2023-08-07T01:10:27;94859.38;;;19.33;83.29
7182;BME280;3632;42.724;23.298;2023-08-07T01:13:02;94869.19;;;19.23;83.53
7182;BME280;3632;42.724;23.298;2023-08-07T01:15:33;94852.63;;;18.96;84.54
7182;BME280;3632;42.724;23.298;2023-08-07T01:18:02;94866.34;;;18.96;84.95
7182;BME280;3632;42.724;23.298;2023-08-07T01:20:30;94875.22;;;18.94;85.00
7182;BME280;3632;42.724;23.298;2023-08-07T01:22:58;94874.34;;;18.87;85.77
7182;BME280;3632;42.724;23.298;2023-08-07T01:25:25;94884.34;;;18.75;85.63
7182;BME280;3632;42.724;23.298;2023-08-07T01:27:58;94873.81;;;18.77;86.18
7182;BME280;3632;42.724;23.298;2023-08-07T01:30:31;94880.22;;;18.81;85.98
7182;BME280;3632;42.724;23.298;2023-08-07T01:33:07;94876.25;;;18.78;85.87
7182;BME280;3632;42.724;23.298;2023-08-07T01:35:40;94823.81;;;18.48;85.55
7182;BME280;3632;42.724;23.298;2023-08-07T01:38:11;94885.38;;;18.81;85.41
7182;BME280;3632;42.724;23.298;2023-08-07T01:40:38;94876.78;;;18.88;85.48
7182;BME280;3632;42.724;23.298;2023-08-07T01:43:06;94877.28;;;18.98;85.07
7182;BME280;3632;42.724;23.298;2023-08-07T01:45:32;94869.19;;;18.87;84.95
7182;BME280;3632;42.724;23.298;2023-08-07T01:48:00;94870.88;;;18.94;84.37
7182;BME280;3632;42.724;23.298;2023-08-07T01:50:26;94799.34;;;18.44;84.76
7182;BME280;3632;42.724;23.298;2023-08-07T01:52:53;94841.69;;;18.64;84.51
7182;BME280;3632;42.724;23.298;2023-08-07T01:55:22;94879.53;;;18.87;84.32
7182;BME280;3632;42.724;23.298;2023-08-07T01:57:49;94881.75;;;18.90;83.95
7182;BME280;3632;42.724;23.298;2023-08-07T02:00:16;94884.31;;;18.90;83.88
7182;BME280;3632;42.724;23.298;2023-08-07T02:02:43;94878.19;;;18.76;84.34
7182;BME280;3632;42.724;23.298;2023-08-07T02:05:10;94866.34;;;18.82;84.68
7182;BME280;3632;42.724;23.298;2023-08-07T02:07:37;94866.34;;;18.82;85.31
7182;BME280;3632;42.724;23.298;2023-08-07T02:10:04;94882.22;;;18.79;83.69
7182;BME280;3632;42.724;23.298;2023-08-07T02:12:32;94880.59;;;18.78;83.70
7182;BME280;3632;42.724;23.298;2023-08-07T02:14:59;94889.69;;;18.74;83.73
7182;BME280;3632;42.724;23.298;2023-08-07T02:17:27;94895.22;;;18.70;84.21
7182;BME280;3632;42.724;23.298;2023-08-07T02:19:55;94897.78;;;18.70;84.35
7182;BME280;3632;42.724;23.298;2023-08-07T02:22:22;94900.53;;;18.69;85.04
7182;BME280;3632;42.724;23.298;2023-08-07T02:24:48;94899.19;;;18.73;84.43
7182;BME280;3632;42.724;23.298;2023-08-07T02:27:15;94906.50;;;18.69;84.03
7182;BME280;3632;42.724;23.298;2023-08-07T02:29:43;94936.75;;;18.76;84.28
7182;BME280;3632;42.724;23.298;2023-08-07T02:32:10;94911.75;;;18.76;84.26
7182;BME280;3632;42.724;23.298;2023-08-07T02:34:37;94904.47;;;18.80;84.51
7182;BME280;3632;42.724;23.298;2023-08-07T02:37:04;94765.91;;;17.77;84.61
7182;BME280;3632;42.724;23.298;2023-08-07T02:39:31;94894.50;;;18.62;84.75
7182;BME280;3632;42.724;23.298;2023-08-07T02:41:58;94864.72;;;18.51;85.14
7182;BME280;3632;42.724;23.298;2023-08-07T02:44:24;94901.97;;;18.86;85.33
7182;BME280;3632;42.724;23.298;2023-08-07T02:46:52;94906.69;;;18.83;84.71
7182;BME280;3632;42.724;23.298;2023-08-07T02:49:19;94910.88;;;18.84;84.72
7182;BME280;3632;42.724;23.298;2023-08-07T02:51:46;94792.84;;;17.90;85.52
7182;BME280;3632;42.724;23.298;2023-08-07T02:54:12;94920.22;;;18.70;86.33
7182;BME280;3632;42.724;23.298;2023-08-07T02:56:39;94909.69;;;18.71;85.44
7182;BME280;3632;42.724;23.298;2023-08-07T02:59:06;94908.94;;;18.71;85.54
7182;BME280;3632;42.724;23.298;2023-08-07T03:01:33;94842.84;;;18.18;85.47
7182;BME280;3632;42.724;23.298;2023-08-07T03:04:01;94916.56;;;18.64;85.80
7182;BME280;3632;42.724;23.298;2023-08-07T03:06:27;94918.69;;;18.61;85.49
7182;BME280;3632;42.724;23.298;2023-08-07T03:08:54;94927.41;;;18.60;85.57
7182;BME280;3632;42.724;23.298;2023-08-07T03:11:20;94923.81;;;18.46;86.39
7182;BME280;3632;42.724;23.298;2023-08-07T03:13:47;94924.63;;;18.47;86.39
7182;BME280;3632;42.724;23.298;2023-08-07T03:16:15;94925.41;;;18.47;86.39
7182;BME280;3632;42.724;23.298;2023-08-07T03:18:42;94930.22;;;18.50;86.18
7182;BME280;3632;42.724;23.298;2023-08-07T03:21:10;94931.38;;;18.48;86.12
7182;BME280;3632;42.724;23.298;2023-08-07T03:23:37;94933.47;;;18.52;85.75
7182;BME280;3632;42.724;23.298;2023-08-07T03:26:04;94935.09;;;18.53;85.62
7182;BME280;3632;42.724;23.298;2023-08-07T03:28:31;94908.31;;;18.46;85.20
7182;BME280;3632;42.724;23.298;2023-08-07T03:30:58;94942.53;;;18.63;85.17
7182;BME280;3632;42.724;23.298;2023-08-07T03:33:25;94943.91;;;18.74;84.71
7182;BME280;3632;42.724;23.298;2023-08-07T03:35:52;94955.03;;;18.74;84.16
7182;BME280;3632;42.724;23.298;2023-08-07T03:38:20;94952.25;;;18.76;83.67
7182;BME280;3632;42.724;23.298;2023-08-07T03:40:47;94960.63;;;18.78;83.75
7182;BME280;3632;42.724;23.298;2023-08-07T03:43:13;94961.72;;;18.83;83.21
7182;BME280;3632;42.724;23.298;2023-08-07T03:45:40;94968.47;;;18.84;83.67
7182;BME280;3632;42.724;23.298;2023-08-07T03:48:07;94969.81;;;18.95;82.96
7182;BME280;3632;42.724;23.298;2023-08-07T03:50:34;94970.34;;;19.05;82.64
7182;BME280;3632;42.724;23.298;2023-08-07T03:53:02;94777.34;;;17.60;82.20
7182;BME280;3632;42.724;23.298;2023-08-07T03:55:31;94971.94;;;19.06;82.00
7182;BME280;3632;42.724;23.298;2023-08-07T03:57:57;94971.59;;;19.09;81.90
7182;BME280;3632;42.724;23.298;2023-08-07T04:00:24;94976.22;;;19.13;80.71
7182;BME280;3632;42.724;23.298;2023-08-07T04:02:51;94926.06;;;18.93;80.68
7182;BME280;3632;42.724;23.298;2023-08-07T04:05:18;94703.91;;;17.56;80.27
7182;BME280;3632;42.724;23.298;2023-08-07T04:07:44;94979.03;;;19.33;79.23
7182;BME280;3632;42.724;23.298;2023-08-07T04:10:11;94982.06;;;19.37;79.08
7182;BME280;3632;42.724;23.298;2023-08-07T04:12:39;94983.47;;;19.39;78.58
7182;BME280;3632;42.724;23.298;2023-08-07T04:15:07;94987.41;;;19.35;78.85
7182;BME280;3632;42.724;23.298;2023-08-07T04:17:35;94883.72;;;18.58;78.81
7182;BME280;3632;42.724;23.298;2023-08-07T04:20:02;94987.34;;;19.29;78.76
7182;BME280;3632;42.724;23.298;2023-08-07T04:22:30;94997.41;;;19.38;80.42
7182;BME280;3632;42.724;23.298;2023-08-07T04:24:57;94995.16;;;19.35;78.71
7182;BME280;3632;42.724;23.298;2023-08-07T04:27:23;94994.28;;;19.28;78.59
7182;BME280;3632;42.724;23.298;2023-08-07T04:29:51;95008.47;;;19.03;80.05
7182;BME280;3632;42.724;23.298;2023-08-07T04:32:18;95014.09;;;19.21;79.13
7182;BME280;3632;42.724;23.298;2023-08-07T04:34:45;95015.94;;;19.27;79.08
7182;BME280;3632;42.724;23.298;2023-08-07T04:37:11;95005.88;;;19.32;78.39
7182;BME280;3632;42.724;23.298;2023-08-07T04:39:38;95005.06;;;19.32;78.26
7182;BME280;3632;42.724;23.298;2023-08-07T04:42:05;95020.03;;;19.36;78.24
7182;BME280;3632;42.724;23.298;2023-08-07T04:44:32;95006.13;;;19.37;78.11
7182;BME280;3632;42.724;23.298;2023-08-07T04:47:00;95011.66;;;19.34;78.05
7182;BME280;3632;42.724;23.298;2023-08-07T04:49:26;95004.72;;;19.35;78.19
7182;BME280;3632;42.724;23.298;2023-08-07T04:51:53;94956.19;;;18.86;78.26
7182;BME280;3632;42.724;23.298;2023-08-07T04:54:20;95016.84;;;19.34;78.08
7182;BME280;3632;42.724;23.298;2023-08-07T04:56:46;95011.66;;;19.34;78.23
7182;BME280;3632;42.724;23.298;2023-08-07T04:59:13;95010.31;;;19.24;77.92
7182;BME280;3632;42.724;23.298;2023-08-07T05:01:40;95003.28;;;19.32;77.39
7182;BME280;3632;42.724;23.298;2023-08-07T05:04:08;94967.03;;;19.11;77.15
7182;BME280;3632;42.724;23.298;2023-08-07T05:06:35;95009.69;;;19.36;77.79
7182;BME280;3632;42.724;23.298;2023-08-07T05:09:02;94995.78;;;19.37;77.64
7182;BME280;3632;42.724;23.298;2023-08-07T05:11:29;94998.22;;;19.39;76.88
7182;BME280;3632;42.724;23.298;2023-08-07T05:13:55;94699.69;;;17.03;76.83
7182;BME280;3632;42.724;23.298;2023-08-07T05:16:22;94995.16;;;19.35;77.09
7182;BME280;3632;42.724;23.298;2023-08-07T05:18:49;94997.84;;;19.42;77.17
7182;BME280;3632;42.724;23.298;2023-08-07T05:21:17;94801.84;;;18.23;76.96
7182;BME280;3632;42.724;23.298;2023-08-07T05:23:44;94979.91;;;19.40;76.19
7182;BME280;3632;42.724;23.298;2023-08-07T05:26:10;94993.13;;;19.45;76.29
7182;BME280;3632;42.724;23.298;2023-08-07T05:28:37;94953.91;;;19.27;76.64
7182;BME280;3632;42.724;23.298;2023-08-07T05:31:04;94966.13;;;19.18;76.98
7182;BME280;3632;42.724;23.298;2023-08-07T05:33:30;94995.88;;;19.44;76.71
7182;BME280;3632;42.724;23.298;2023-08-07T05:35:57;95001.22;;;19.42;74.92
7182;BME280;3632;42.724;23.298;2023-08-07T05:38:25;95001.06;;;19.29;76.99
7182;BME280;3632;42.724;23.298;2023-08-07T05:40:52;94961.97;;;18.74;77.05
7182;BME280;3632;42.724;23.298;2023-08-07T05:43:19;95007.31;;;19.49;76.99
7182;BME280;3632;42.724;23.298;2023-08-07T05:45:45;95000.00;;;19.38;77.15
7182;BME280;3632;42.724;23.298;2023-08-07T05:48:14;95005.25;;;19.30;77.10
7182;BME280;3632;42.724;23.298;2023-08-07T05:50:41;95002.03;;;19.28;77.04
7182;BME280;3632;42.724;23.298;2023-08-07T05:53:08;95015.13;;;19.27;76.91
7182;BME280;3632;42.724;23.298;2023-08-07T05:55:39;95003.47;;;19.16;77.44
7182;BME280;3632;42.724;23.298;2023-08-07T05:58:05;95000.63;;;19.26;75.82
7182;BME280;3632;42.724;23.298;2023-08-07T06:00:32;95008.19;;;19.12;76.36
7182;BME280;3632;42.724;23.298;2023-08-07T06:02:59;94964.66;;;18.95;75.92
7182;BME280;3632;42.724;23.298;2023-08-07T06:05:25;95004.88;;;19.33;75.19
7182;BME280;3632;42.724;23.298;2023-08-07T06:07:52;95003.81;;;19.28;74.65
7182;BME280;3632;42.724;23.298;2023-08-07T06:10:19;95002.03;;;19.28;75.11
7182;BME280;3632;42.724;23.298;2023-08-07T06:12:47;95005.59;;;19.27;74.16
7182;BME280;3632;42.724;23.298;2023-08-07T06:15:14;94992.06;;;19.25;74.93
7182;BME280;3632;42.724;23.298;2023-08-07T06:17:41;94764.91;;;17.78;74.75
7182;BME280;3632;42.724;23.298;2023-08-07T06:20:11;94928.69;;;18.79;75.17
7182;BME280;3632;42.724;23.298;2023-08-07T06:22:39;94997.41;;;19.38;75.22
7182;BME280;3632;42.724;23.298;2023-08-07T06:25:07;94939.31;;;19.20;74.56
7182;BME280;3632;42.724;23.298;2023-08-07T06:27:34;94987.44;;;19.50;73.83
7182;BME280;3632;42.724;23.298;2023-08-07T06:30:02;94901.84;;;19.09;73.17
7182;BME280;3632;42.724;23.298;2023-08-07T06:32:29;94984.72;;;19.73;72.36
7182;BME280;3632;42.724;23.298;2023-08-07T06:34:55;94991.13;;;19.77;71.58
7182;BME280;3632;42.724;23.298;2023-08-07T06:37:22;94991.47;;;19.95;70.31
7182;BME280;3632;42.724;23.298;2023-08-07T06:39:49;94983.66;;;20.10;69.45
7182;BME280;3632;42.724;23.298;2023-08-07T06:42:15;94998.91;;;19.98;69.49
7182;BME280;3632;42.724;23.298;2023-08-07T06:44:42;94988.16;;;20.01;67.69
7182;BME280;3632;42.724;23.298;2023-08-07T06:47:10;94997.78;;;19.86;67.71
7182;BME280;3632;42.724;23.298;2023-08-07T06:49:37;94997.28;;;19.97;66.09
7182;BME280;3632;42.724;23.298;2023-08-07T06:52:04;94968.94;;;19.89;66.48
7182;BME280;3632;42.724;23.298;2023-08-07T06:54:31;94989.41;;;20.05;66.27
7182;BME280;3632;42.724;23.298;2023-08-07T06:56:58;94997.16;;;20.26;66.44
7182;BME280;3632;42.724;23.298;2023-08-07T06:59:25;94888.53;;;19.63;65.30
7182;BME280;3632;42.724;23.298;2023-08-07T07:01:51;94992.53;;;20.43;64.02
7182;BME280;3632;42.724;23.298;2023-08-07T07:04:20;95017.25;;;20.45;64.43
7182;BME280;3632;42.724;23.298;2023-08-07T07:06:46;94836.81;;;19.05;62.55
7182;BME280;3632;42.724;23.298;2023-08-07T07:09:13;94995.81;;;20.51;64.53
7182;BME280;3632;42.724;23.298;2023-08-07T07:11:42;94999.03;;;20.54;64.19
7182;BME280;3632;42.724;23.298;2023-08-07T07:14:09;94992.22;;;20.52;64.18
7182;BME280;3632;42.724;23.298;2023-08-07T07:16:36;94989.22;;;20.77;64.46
7182;BME280;3632;42.724;23.298;2023-08-07T07:19:03;94998.78;;;20.76;63.62
7182;BME280;3632;42.724;23.298;2023-08-07T07:21:33;94995.03;;;20.79;64.29
7182;BME280;3632;42.724;23.298;2023-08-07T07:24:00;94815.75;;;19.66;64.03
7182;BME280;3632;42.724;23.298;2023-08-07T07:26:27;94982.09;;;20.85;60.38
7182;BME280;3632;42.724;23.298;2023-08-07T07:28:53;94988.91;;;20.93;59.40
7182;BME280;3632;42.724;23.298;2023-08-07T07:31:20;94988.41;;;21.04;60.82
7182;BME280;3632;42.724;23.298;2023-08-07T07:33:47;94989.00;;;21.06;59.51
7182;BME280;3632;42.724;23.298;2023-08-07T07:36:16;94977.81;;;21.06;57.19
7182;BME280;3632;42.724;23.298;2023-08-07T07:38:45;94984.66;;;21.13;56.96
7182;BME280;3632;42.724;23.298;2023-08-07T07:41:13;94982.25;;;21.12;56.45
7182;BME280;3632;42.724;23.298;2023-08-07T07:43:39;94987.03;;;21.08;57.80
7182;BME280;3632;42.724;23.298;2023-08-07T07:46:06;94982.63;;;21.09;56.53
7182;BME280;3632;42.724;23.298;2023-08-07T07:48:33;94885.84;;;20.47;57.40
7182;BME280;3632;42.724;23.298;2023-08-07T07:51:00;94993.88;;;21.16;54.09
7182;BME280;3632;42.724;23.298;2023-08-07T07:53:27;94989.09;;;21.19;53.21
7182;BME280;3632;42.724;23.298;2023-08-07T07:55:55;95018.25;;;21.28;53.07
7182;BME280;3632;42.724;23.298;2023-08-07T07:58:23;94997.91;;;21.31;52.54
7182;BME280;3632;42.724;23.298;2023-08-07T08:00:50;94980.44;;;21.47;52.74
7182;BME280;3632;42.724;23.298;2023-08-07T08:03:19;94916.28;;;21.14;52.15
7182;BME280;3632;42.724;23.298;2023-08-07T08:05:48;94927.13;;;21.31;49.87
7182;BME280;3632;42.724;23.298;2023-08-07T08:08:15;94967.31;;;21.61;50.82
7182;BME280;3632;42.724;23.298;2023-08-07T08:10:42;94970.34;;;21.71;53.25
7182;BME280;3632;42.724;23.298;2023-08-07T08:13:11;94970.00;;;21.81;52.78
7182;BME280;3632;42.724;23.298;2023-08-07T08:15:37;94968.22;;;21.95;52.84
7182;BME280;3632;42.724;23.298;2023-08-07T08:18:04;94970.06;;;22.14;52.85
7182;BME280;3632;42.724;23.298;2023-08-07T08:20:31;94959.50;;;22.22;51.49
7182;BME280;3632;42.724;23.298;2023-08-07T08:22:58;94952.72;;;22.27;51.27
7182;BME280;3632;42.724;23.298;2023-08-07T08:25:25;94958.50;;;22.56;51.02
7182;BME280;3632;42.724;23.298;2023-08-07T08:27:52;94963.06;;;22.67;50.74
7182;BME280;3632;42.724;23.298;2023-08-07T08:30:20;94965.88;;;22.72;49.89
7182;BME280;3632;42.724;23.298;2023-08-07T08:32:48;94887.16;;;22.32;49.44
7182;BME280;3632;42.724;23.298;2023-08-07T08:35:14;94949.06;;;22.68;50.34
7182;BME280;3632;42.724;23.298;2023-08-07T08:37:41;94946.31;;;22.83;51.28
7182;BME280;3632;42.724;23.298;2023-08-07T08:40:09;94945.25;;;23.03;49.39
7182;BME280;3632;42.724;23.298;2023-08-07T08:42:39;94939.72;;;23.38;49.25
7182;BME280;3632;42.724;23.298;2023-08-07T08:45:09;94943.69;;;23.53;49.28
7182;BME280;3632;42.724;23.298;2023-08-07T08:47:39;94947.84;;;23.61;48.73
7182;BME280;3632;42.724;23.298;2023-08-07T08:50:07;94942.13;;;23.77;49.34
7182;BME280;3632;42.724;23.298;2023-08-07T08:52:36;94898.75;;;23.71;51.65
7182;BME280;3632;42.724;23.298;2023-08-07T08:55:04;94892.69;;;23.46;49.71
7182;BME280;3632;42.724;23.298;2023-08-07T08:57:32;94844.28;;;23.45;50.64
7182;BME280;3632;42.724;23.298;2023-08-07T09:00:00;94947.19;;;24.35;50.53
7182;BME280;3632;42.724;23.298;2023-08-07T09:02:30;94945.16;;;24.37;48.53
7182;BME280;3632;42.724;23.298;2023-08-07T09:04:59;94937.84;;;24.52;47.82
7182;BME280;3632;42.724;23.298;2023-08-07T09:07:27;94945.41;;;24.35;48.84
7182;BME280;3632;42.724;23.298;2023-08-07T09:09:55;94923.00;;;24.28;47.39
7182;BME280;3632;42.724;23.298;2023-08-07T09:12:25;94941.34;;;24.64;48.57
7182;BME280;3632;42.724;23.298;2023-08-07T09:14:55;94942.38;;;24.81;47.61
7182;BME280;3632;42.724;23.298;2023-08-07T09:17:24;94940.53;;;24.64;46.81
7182;BME280;3632;42.724;23.298;2023-08-07T09:19:51;94928.94;;;24.60;47.86
7182;BME280;3632;42.724;23.298;2023-08-07T09:22:20;94928.81;;;24.73;49.03
7182;BME280;3632;42.724;23.298;2023-08-07T09:24:46;94888.47;;;24.57;47.28
7182;BME280;3632;42.724;23.298;2023-08-07T09:27:14;94915.75;;;24.97;48.03
7182;BME280;3632;42.724;23.298;2023-08-07T09:29:41;94923.00;;;25.14;47.09
7182;BME280;3632;42.724;23.298;2023-08-07T09:32:11;94917.41;;;25.28;46.20
7182;BME280;3632;42.724;23.298;2023-08-07T09:34:39;94916.97;;;25.13;44.47
7182;BME280;3632;42.724;23.298;2023-08-07T09:37:07;94919.94;;;25.17;45.24
7182;BME280;3632;42.724;23.298;2023-08-07T09:39:35;94927.56;;;25.18;46.71
7182;BME280;3632;42.724;23.298;2023-08-07T09:42:02;94914.41;;;25.43;45.94
7182;BME280;3632;42.724;23.298;2023-08-07T09:44:35;94917.47;;;25.58;45.78
7182;BME280;3632;42.724;23.298;2023-08-07T09:47:11;94897.28;;;25.65;45.39
7182;BME280;3632;42.724;23.298;2023-08-07T09:49:38;94917.53;;;25.81;45.86
7182;BME280;3632;42.724;23.298;2023-08-07T09:52:06;94897.19;;;26.13;44.59
7182;BME280;3632;42.724;23.298;2023-08-07T09:54:36;94922.78;;;26.23;43.19
7182;BME280;3632;42.724;23.298;2023-08-07T09:57:03;94878.31;;;26.11;44.19
7182;BME280;3632;42.724;23.298;2023-08-07T09:59:31;94914.38;;;26.44;48.05
7182;BME280;3632;42.724;23.298;2023-08-07T10:01:59;94915.41;;;26.55;42.23
7182;BME280;3632;42.724;23.298;2023-08-07T10:04:27;94912.34;;;26.58;41.96
7182;BME280;3632;42.724;23.298;2023-08-07T10:06:54;94891.09;;;26.54;41.57
7182;BME280;3632;42.724;23.298;2023-08-07T10:09:22;94805.41;;;25.86;40.57
7182;BME280;3632;42.724;23.298;2023-08-07T10:11:50;94917.91;;;26.61;42.32
7182;BME280;3632;42.724;23.298;2023-08-07T10:14:18;94822.38;;;26.30;43.44
7182;BME280;3632;42.724;23.298;2023-08-07T10:16:46;94920.63;;;27.13;42.07
7182;BME280;3632;42.724;23.298;2023-08-07T10:19:12;94907.00;;;27.51;42.28
7182;BME280;3632;42.724;23.298;2023-08-07T10:21:40;94864.44;;;27.44;41.08
7182;BME280;3632;42.724;23.298;2023-08-07T10:24:09;94902.06;;;28.11;42.97
7182;BME280;3632;42.724;23.298;2023-08-07T10:26:41;94905.97;;;28.25;38.96
7182;BME280;3632;42.724;23.298;2023-08-07T10:29:13;94899.22;;;28.01;39.77
7182;BME280;3632;42.724;23.298;2023-08-07T10:31:42;94875.66;;;28.01;40.33
7182;BME280;3632;42.724;23.298;2023-08-07T10:34:10;94879.06;;;28.13;40.34
7182;BME280;3632;42.724;23.298;2023-08-07T10:36:39;94896.50;;;28.57;40.06
7182;BME280;3632;42.724;23.298;2023-08-07T10:39:07;94889.72;;;28.61;39.50
7182;BME280;3632;42.724;23.298;2023-08-07T10:41:39;94898.38;;;28.79;40.53
7182;BME280;3632;42.724;23.298;2023-08-07T10:44:16;94903.53;;;29.12;39.01
7182;BME280;3632;42.724;23.298;2023-08-07T10:46:47;94896.19;;;28.71;38.13
7182;BME280;3632;42.724;23.298;2023-08-07T10:49:29;94872.97;;;28.79;39.89
7182;BME280;3632;42.724;23.298;2023-08-07T10:51:57;94872.06;;;29.12;39.32
7182;BME280;3632;42.724;23.298;2023-08-07T10:54:24;94869.63;;;29.27;38.89
7182;BME280;3632;42.724;23.298;2023-08-07T10:56:53;94868.53;;;29.23;37.79
7182;BME280;3632;42.724;23.298;2023-08-07T10:59:21;94869.97;;;29.14;37.63
7182;BME280;3632;42.724;23.298;2023-08-07T11:01:51;94872.34;;;29.16;37.18
7182;BME280;3632;42.724;23.298;2023-08-07T11:04:18;94863.41;;;29.33;36.96
7182;BME280;3632;42.724;23.298;2023-08-07T11:06:47;94747.28;;;28.78;37.38
7182;BME280;3632;42.724;23.298;2023-08-07T11:09:14;94874.59;;;29.50;38.48
7182;BME280;3632;42.724;23.298;2023-08-07T11:11:42;94857.19;;;29.66;36.98
7182;BME280;3632;42.724;23.298;2023-08-07T11:14:12;94852.47;;;29.95;39.53
7182;BME280;3632;42.724;23.298;2023-08-07T11:16:40;94846.41;;;30.26;35.09
7182;BME280;3632;42.724;23.298;2023-08-07T11:19:08;94844.06;;;29.71;35.67
7182;BME280;3632;42.724;23.298;2023-08-07T11:21:37;94840.03;;;29.32;37.06
7182;BME280;3632;42.724;23.298;2023-08-07T11:24:04;94824.22;;;29.05;37.33
7182;BME280;3632;42.724;23.298;2023-08-07T11:26:31;94832.06;;;29.27;37.37
7182;BME280;3632;42.724;23.298;2023-08-07T11:28:58;94788.34;;;28.89;36.69
7182;BME280;3632;42.724;23.298;2023-08-07T11:31:25;94846.00;;;28.84;38.17
7182;BME280;3632;42.724;23.298;2023-08-07T11:33:55;94844.03;;;28.57;37.48
7182;BME280;3632;42.724;23.298;2023-08-07T11:36:23;94805.34;;;28.26;38.13
7182;BME280;3632;42.724;23.298;2023-08-07T11:38:49;94845.25;;;28.50;38.84
7182;BME280;3632;42.724;23.298;2023-08-07T11:41:17;94836.44;;;28.39;39.66
7182;BME280;3632;42.724;23.298;2023-08-07T11:43:45;94837.75;;;28.20;40.21
7182;BME280;3632;42.724;23.298;2023-08-07T11:46:13;94840.84;;;28.17;39.82
7182;BME280;3632;42.724;23.298;2023-08-07T11:48:42;94619.44;;;26.36;40.24
7182;BME280;3632;42.724;23.298;2023-08-07T11:51:10;94835.03;;;27.98;39.39
7182;BME280;3632;42.724;23.298;2023-08-07T11:53:39;94834.56;;;28.18;39.75
7182;BME280;3632;42.724;23.298;2023-08-07T11:56:06;94821.44;;;28.35;40.62
7182;BME280;3632;42.724;23.298;2023-08-07T11:58:35;94809.28;;;28.45;40.41
7182;BME280;3632;42.724;23.298;2023-08-07T12:01:06;94824.94;;;28.79;40.71
7182;BME280;3632;42.724;23.298;2023-08-07T12:03:35;94829.25;;;29.12;40.85
7182;BME280;3632;42.724;23.298;2023-08-07T12:06:06;94818.25;;;30.27;38.75
7182;BME280;3632;42.724;23.298;2023-08-07T12:08:36;94820.47;;;30.87;37.38
7182;BME280;3632;42.724;23.298;2023-08-07T12:11:04;94812.72;;;30.65;35.56
7182;BME280;3632;42.724;23.298;2023-08-07T12:13:31;94768.16;;;30.02;37.44
7182;BME280;3632;42.724;23.298;2023-08-07T12:16:00;94806.72;;;29.91;37.47
7182;BME280;3632;42.724;23.298;2023-08-07T12:18:27;94786.53;;;29.38;38.43
7182;BME280;3632;42.724;23.298;2023-08-07T12:20:58;94813.88;;;29.42;39.48
7182;BME280;3632;42.724;23.298;2023-08-07T12:23:26;94720.00;;;28.57;38.57
7182;BME280;3632;42.724;23.298;2023-08-07T12:25:54;94743.31;;;28.53;39.42
7182;BME280;3632;42.724;23.298;2023-08-07T12:28:21;94817.06;;;28.79;39.56
7182;BME280;3632;42.724;23.298;2023-08-07T12:30:49;94780.19;;;28.47;42.41
7182;BME280;3632;42.724;23.298;2023-08-07T12:33:16;94815.56;;;28.66;41.91
7182;BME280;3632;42.724;23.298;2023-08-07T12:35:43;94817.31;;;28.60;40.35
7182;BME280;3632;42.724;23.298;2023-08-07T12:38:10;94806.50;;;28.35;40.39
7182;BME280;3632;42.724;23.298;2023-08-07T12:40:39;94812.06;;;28.77;41.28
7182;BME280;3632;42.724;23.298;2023-08-07T12:43:07;94821.03;;;29.03;40.36
7182;BME280;3632;42.724;23.298;2023-08-07T12:45:34;94817.16;;;29.32;39.54
7182;BME280;3632;42.724;23.298;2023-08-07T12:48:01;94815.06;;;29.56;39.87
7182;BME280;3632;42.724;23.298;2023-08-07T12:50:28;94814.84;;;30.26;40.03
7182;BME280;3632;42.724;23.298;2023-08-07T12:52:55;94812.41;;;30.57;38.06
7182;BME280;3632;42.724;23.298;2023-08-07T12:55:22;94656.41;;;29.52;38.05
7182;BME280;3632;42.724;23.298;2023-08-07T12:57:49;94808.91;;;30.93;37.71
7182;BME280;3632;42.724;23.298;2023-08-07T13:00:18;94824.91;;;31.44;37.78
7182;BME280;3632;42.724;23.298;2023-08-07T13:02:46;94820.13;;;31.46;37.06
7182;BME280;3632;42.724;23.298;2023-08-07T13:05:14;94823.97;;;30.56;37.93
7182;BME280;3632;42.724;23.298;2023-08-07T13:07:42;94787.47;;;29.85;39.85
7182;BME280;3632;42.724;23.298;2023-08-07T13:10:11;94825.91;;;29.65;39.89
7182;BME280;3632;42.724;23.298;2023-08-07T13:12:39;94825.63;;;29.61;39.90